Time;durP1;ratioP1;P1;durP2;ratioP2;P2;SDS_P1;SDS_P2;PMS_P1;PMS_P2;Temp;Humidity;BMP_temperature;BMP_pressure;BME280_temperature;BME280_humidity;BME280_pressure;Samples;Min_cycle;Max_cycle;Signal;HPM_P1;HPM_P2
2022/07/16 00:02:50;;;;;;;878.03;816.43;;;15.60;10.80;;;;;;4992628;28;20224;-68
2022/07/16 00:05:15;;;;;;;981.67;909.87;;;15.60;10.80;;;;;;4992496;28;21152;-69
2022/07/16 00:07:41;;;;;;;746.77;697.50;;;15.60;10.80;;;;;;4976712;28;20180;-68
2022/07/16 00:10:07;;;;;;;691.57;644.70;;;15.70;10.50;;;;;;4992158;28;20560;-69
2022/07/16 00:12:33;;;;;;;640.40;599.50;;;15.60;10.60;;;;;;4992185;28;20181;-69
2022/07/16 00:14:58;;;;;;;715.40;670.17;;;15.60;10.70;;;;;;4992302;28;20420;-69
2022/07/16 00:17:24;;;;;;;701.37;655.63;;;15.50;10.80;;;;;;4991839;28;20556;-69
2022/07/16 00:19:49;;;;;;;652.63;616.27;;;15.60;10.50;;;;;;4991949;28;20181;-69
2022/07/16 00:22:15;;;;;;;657.37;618.60;;;15.60;10.50;;;;;;4992039;28;20211;-69
2022/07/16 00:24:40;;;;;;;869.20;811.30;;;15.50;11.10;;;;;;4991915;28;20181;-69
2022/07/16 00:27:06;;;;;;;592.60;558.87;;;15.50;10.60;;;;;;4991833;28;20226;-69
2022/07/16 00:29:31;;;;;;;962.37;893.30;;;15.50;10.70;;;;;;4992005;28;20315;-69
2022/07/16 00:31:57;;;;;;;524.23;495.27;;;15.50;10.80;;;;;;4991995;28;20212;-68
2022/07/16 00:34:23;;;;;;;725.03;679.27;;;15.50;10.70;;;;;;4991379;28;20184;-69
2022/07/16 00:36:49;;;;;;;628.20;589.70;;;15.50;10.70;;;;;;4992065;28;20268;-69
2022/07/16 00:39:15;;;;;;;827.00;769.43;;;15.50;10.60;;;;;;4990587;28;20192;-69
2022/07/16 00:41:43;;;;;;;362.97;345.63;;;15.50;10.60;;;;;;4991807;28;20467;-69
2022/07/16 00:44:12;;;;;;;631.00;590.97;;;15.50;10.90;;;;;;4992066;28;20423;-69
2022/07/16 00:46:39;;;;;;;713.60;667.30;;;15.40;10.80;;;;;;4991872;28;20463;-69
2022/07/16 00:49:05;;;;;;;542.90;513.00;;;15.40;10.80;;;;;;4991756;28;20414;-69
2022/07/16 00:51:31;;;;;;;771.23;720.70;;;15.40;11.00;;;;;;4991813;28;20459;-69
2022/07/16 00:53:57;;;;;;;836.10;777.57;;;15.40;11.00;;;;;;4991912;28;20803;-72
2022/07/16 00:56:24;;;;;;;754.80;703.87;;;15.30;11.20;;;;;;4991765;28;20439;-69
2022/07/16 00:58:50;;;;;;;814.87;760.17;;;15.20;11.50;;;;;;4991553;28;20435;-68
2022/07/16 01:01:17;;;;;;;926.43;860.70;;;15.10;11.60;;;;;;4990389;28;20455;-68
2022/07/16 01:03:44;;;;;;;599.87;566.80;;;15.00;12.00;;;;;;4991887;28;20428;-68
2022/07/16 01:06:11;;;;;;;697.83;651.47;;;14.90;11.80;;;;;;4991305;28;20473;-69
2022/07/16 01:08:40;;;;;;;924.43;858.77;;;14.80;12.40;;;;;;4991449;28;20441;-69
2022/07/16 01:11:07;;;;;;;615.93;578.93;;;14.70;12.90;;;;;;4993141;28;20487;-69
2022/07/16 01:13:34;;;;;;;960.80;890.50;;;14.60;12.80;;;;;;4995447;28;20427;-68
2022/07/16 01:16:01;;;;;;;967.50;896.73;;;14.50;12.80;;;;;;4995175;28;20435;-68
2022/07/16 01:18:26;;;;;;;750.20;701.70;;;14.50;12.90;;;;;;4993695;28;20506;-69
2022/07/16 01:20:52;;;;;;;746.57;694.93;;;14.40;12.80;;;;;;4995270;28;20439;-68
2022/07/16 01:23:19;;;;;;;768.73;716.80;;;14.40;12.90;;;;;;4995388;28;20211;-66
2022/07/16 01:25:45;;;;;;;904.67;840.67;;;14.30;13.10;;;;;;4995069;28;20185;-67
2022/07/16 01:28:11;;;;;;;628.03;592.33;;;14.30;13.50;;;;;;4994848;28;20834;-67
2022/07/16 01:30:36;;;;;;;919.73;850.97;;;14.30;13.50;;;;;;4994810;28;20200;-68
2022/07/16 01:33:25;;;;;;;798.87;748.13;;;14.20;13.60;;;;;;4975733;28;20264;-68
2022/07/16 01:35:53;;;;;;;479.63;450.53;;;14.20;13.40;;;;;;4994125;28;20431;-68
2022/07/16 01:38:19;;;;;;;981.43;911.47;;;14.20;13.90;;;;;;4973692;28;20451;-68
2022/07/16 01:40:44;;;;;;;688.00;646.37;;;14.20;13.60;;;;;;4978390;28;20454;-68
2022/07/16 01:43:18;;;;;;;542.37;511.17;;;14.20;13.80;;;;;;4995071;28;20489;-68
2022/07/16 01:45:44;;;;;;;455.83;430.53;;;14.20;14.00;;;;;;4994823;28;20234;-67
2022/07/16 01:48:11;;;;;;;666.57;624.47;;;14.20;14.00;;;;;;4994214;28;20506;-66
2022/07/16 01:50:37;;;;;;;708.80;664.20;;;14.20;13.90;;;;;;4994371;28;20201;-67
2022/07/16 01:53:03;;;;;;;637.43;598.97;;;14.20;13.90;;;;;;4994762;28;20793;-67
2022/07/16 01:55:29;;;;;;;661.10;620.47;;;14.10;13.90;;;;;;4994404;28;20651;-67
2022/07/16 01:57:55;;;;;;;782.50;730.10;;;14.10;14.10;;;;;;4994222;28;20565;-66
2022/07/16 02:00:21;;;;;;;578.47;546.50;;;14.00;14.20;;;;;;4994402;28;20505;-66
2022/07/16 02:02:46;;;;;;;718.60;672.50;;;13.90;14.20;;;;;;4994458;28;20694;-66
2022/07/16 02:05:12;;;;;;;645.77;607.10;;;13.90;14.60;;;;;;4994155;28;20187;-67
2022/07/16 02:07:39;;;;;;;632.80;596.13;;;13.80;14.60;;;;;;4994789;28;20274;-67
2022/07/16 02:10:04;;;;;;;621.87;584.73;;;13.80;14.70;;;;;;4993990;28;20467;-66
2022/07/16 02:12:30;;;;;;;597.87;563.33;;;13.80;14.70;;;;;;4994035;28;20914;-68
2022/07/16 02:14:56;;;;;;;601.60;565.47;;;13.80;14.70;;;;;;4994093;28;20928;-68
2022/07/16 02:17:21;;;;;;;611.33;577.70;;;13.80;14.70;;;;;;4994072;28;20202;-67
2022/07/16 02:19:47;;;;;;;657.90;619.23;;;13.80;14.80;;;;;;4994077;28;20650;-68
2022/07/16 02:22:14;;;;;;;654.00;613.33;;;13.70;14.90;;;;;;4993598;28;20222;-67
2022/07/16 02:24:40;;;;;;;691.43;647.87;;;13.70;14.90;;;;;;4992706;28;20217;-67
2022/07/16 02:27:06;;;;;;;645.13;606.30;;;13.60;15.30;;;;;;4993913;28;20423;-67
2022/07/16 02:29:32;;;;;;;734.03;688.60;;;13.70;15.00;;;;;;4993894;28;20269;-67
2022/07/16 02:31:57;;;;;;;866.20;803.77;;;13.70;15.60;;;;;;4993995;28;20235;-67
2022/07/16 02:34:23;;;;;;;713.63;670.13;;;13.70;15.00;;;;;;4993753;28;20196;-67
2022/07/16 02:36:48;;;;;;;736.13;684.40;;;13.60;14.80;;;;;;4993651;28;20571;-67
2022/07/16 02:39:14;;;;;;;532.37;503.37;;;13.60;15.00;;;;;;4993314;28;20655;-67
2022/07/16 02:41:39;;;;;;;740.30;694.80;;;13.50;15.00;;;;;;4993345;28;20210;-67
2022/07/16 02:44:05;;;;;;;682.50;642.40;;;13.50;15.20;;;;;;4992604;28;20180;-67
2022/07/16 02:46:30;;;;;;;737.43;688.40;;;13.50;15.20;;;;;;4993665;28;20657;-67
2022/07/16 02:48:56;;;;;;;839.50;783.07;;;13.50;15.40;;;;;;4993221;28;20251;-66
2022/07/16 02:51:22;;;;;;;736.83;687.30;;;13.40;15.50;;;;;;4993444;28;20288;-66
2022/07/16 02:53:47;;;;;;;963.57;891.07;;;13.40;16.30;;;;;;4993981;28;20197;-66
2022/07/16 02:56:13;;;;;;;527.47;499.73;;;13.40;16.00;;;;;;4993515;28;20525;-67
2022/07/16 02:58:38;;;;;;;638.07;599.03;;;13.30;15.80;;;;;;4992841;28;20205;-67
2022/07/16 03:01:04;;;;;;;505.23;478.37;;;13.30;16.10;;;;;;4993400;28;20249;-66
2022/07/16 03:03:29;;;;;;;781.50;731.50;;;13.30;16.30;;;;;;4993214;28;20210;-67
2022/07/16 03:05:55;;;;;;;649.90;611.30;;;13.30;16.30;;;;;;4993081;28;20188;-67
2022/07/16 03:08:20;;;;;;;689.97;646.83;;;13.30;16.00;;;;;;4992852;28;20223;-67
2022/07/16 03:10:46;;;;;;;725.27;680.30;;;13.20;16.20;;;;;;4992738;28;20353;-67
2022/07/16 03:13:12;;;;;;;607.20;571.83;;;13.30;16.30;;;;;;4992926;28;20190;-67
2022/07/16 03:15:37;;;;;;;687.97;645.23;;;13.30;16.30;;;;;;4993002;28;20244;-66
2022/07/16 03:18:03;;;;;;;520.47;489.37;;;13.20;16.30;;;;;;4992680;28;20195;-68
2022/07/16 03:20:28;;;;;;;522.40;492.40;;;13.10;16.20;;;;;;4992835;28;20211;-67
2022/07/16 03:22:54;;;;;;;411.70;392.07;;;13.10;16.30;;;;;;4993101;28;20236;-67
2022/07/16 03:25:20;;;;;;;582.07;550.20;;;13.10;16.60;;;;;;4992855;28;20178;-68
2022/07/16 03:27:45;;;;;;;766.33;715.77;;;13.10;16.60;;;;;;4992897;28;20257;-67
2022/07/16 03:30:12;;;;;;;711.30;664.80;;;13.10;16.70;;;;;;4992475;28;20198;-67
2022/07/16 03:32:38;;;;;;;753.67;704.03;;;13.00;16.60;;;;;;4993033;28;20191;-67
2022/07/16 03:35:06;;;;;;;900.97;836.67;;;13.00;16.80;;;;;;4992050;28;20449;-67
2022/07/16 03:37:31;;;;;;;694.13;649.77;;;13.00;16.80;;;;;;4993021;28;20554;-67
2022/07/16 03:39:57;;;;;;;587.50;553.63;;;13.00;16.80;;;;;;4991397;28;20441;-68
2022/07/16 03:42:23;;;;;;;696.60;650.00;;;13.00;16.70;;;;;;4992549;28;20218;-67
2022/07/16 03:44:48;;;;;;;501.27;474.03;;;13.00;16.90;;;;;;4992789;28;20178;-67
2022/07/16 03:47:14;;;;;;;805.10;748.30;;;13.00;16.70;;;;;;4992216;28;20191;-67
2022/07/16 03:49:39;;;;;;;709.17;662.30;;;13.00;16.70;;;;;;4992148;28;20279;-67
2022/07/16 03:52:05;;;;;;;692.80;650.03;;;13.00;16.50;;;;;;4992448;28;20552;-67
2022/07/16 03:54:31;;;;;;;556.57;524.13;;;13.10;16.20;;;;;;4992564;28;20202;-68
2022/07/16 03:56:56;;;;;;;849.17;791.13;;;13.10;16.20;;;;;;4992473;28;20192;-67
2022/07/16 03:59:22;;;;;;;928.77;860.47;;;13.00;16.70;;;;;;4992010;28;20571;-66
2022/07/16 04:01:47;;;;;;;629.53;590.80;;;13.00;16.70;;;;;;4992391;28;20222;-67
2022/07/16 04:04:13;;;;;;;764.93;713.10;;;13.10;16.20;;;;;;4992329;28;20229;-67
2022/07/16 04:06:38;;;;;;;687.37;641.90;;;13.10;16.60;;;;;;4992380;28;20186;-67
2022/07/16 04:09:04;;;;;;;565.70;534.10;;;13.10;16.60;;;;;;4992298;28;20227;-67
2022/07/16 04:11:29;;;;;;;703.50;660.10;;;13.20;16.30;;;;;;4992130;28;20201;-66
2022/07/16 04:13:55;;;;;;;646.40;603.77;;;13.30;16.30;;;;;;4984778;28;20221;-67
2022/07/16 04:16:21;;;;;;;704.47;658.60;;;13.40;16.40;;;;;;4992249;28;20192;-66
2022/07/16 04:18:46;;;;;;;841.00;784.13;;;13.40;16.30;;;;;;4991783;28;20193;-67
2022/07/16 04:21:12;;;;;;;596.73;562.80;;;13.50;16.00;;;;;;4991918;28;20218;-66
2022/07/16 04:23:37;;;;;;;638.17;597.67;;;13.50;15.90;;;;;;4992312;28;20634;-66
2022/07/16 04:26:03;;;;;;;759.13;710.50;;;13.50;15.90;;;;;;4992394;28;20210;-65
2022/07/16 04:28:29;;;;;;;756.90;707.80;;;13.60;15.80;;;;;;4991588;28;20195;-67
2022/07/16 04:30:55;;;;;;;631.57;596.47;;;13.60;15.50;;;;;;4992046;28;20215;-66
2022/07/16 04:33:20;;;;;;;781.07;728.13;;;13.60;15.70;;;;;;4992404;28;20549;-69
2022/07/16 04:35:48;;;;;;;796.57;744.10;;;13.60;15.70;;;;;;4991955;28;20221;-68
2022/07/16 04:38:14;;;;;;;588.63;551.73;;;13.70;15.30;;;;;;4992329;28;20282;-69
2022/07/16 04:40:40;;;;;;;717.77;674.93;;;13.90;15.10;;;;;;4992208;28;20463;-69
2022/07/16 04:43:05;;;;;;;786.37;739.03;;;14.00;14.80;;;;;;4992258;28;20470;-69
2022/07/16 04:45:31;;;;;;;886.90;827.70;;;14.00;14.60;;;;;;4993948;28;20186;-68
2022/07/16 04:47:56;;;;;;;724.93;675.43;;;14.10;14.40;;;;;;4995285;28;20277;-70
2022/07/16 04:50:22;;;;;;;669.37;627.63;;;14.20;14.00;;;;;;4995534;28;20614;-68
2022/07/16 04:52:47;;;;;;;487.47;464.10;;;14.20;14.00;;;;;;4995849;28;20199;-68
2022/07/16 04:55:13;;;;;;;696.77;655.77;;;14.20;14.10;;;;;;4995767;28;20208;-67
2022/07/16 04:57:38;;;;;;;600.27;568.40;;;14.20;14.30;;;;;;4995894;28;20218;-70
2022/07/16 05:00:05;;;;;;;586.83;551.90;;;14.20;14.70;;;;;;4995377;28;20293;-69
2022/07/16 05:05:15;;;;;;;859.67;801.73;;;15.10;14.60;;;;;;4996010;28;20435;-67
2022/07/16 05:07:40;;;;;;;832.97;777.50;;;16.60;12.40;;;;;;4995161;28;20430;-68
2022/07/16 05:10:06;;;;;;;638.00;604.80;;;18.00;8.80;;;;;;4995034;28;20302;-67
2022/07/16 05:12:32;;;;;;;721.93;672.83;;;19.40;7.20;;;;;;4995375;28;20195;-66
2022/07/16 05:14:57;;;;;;;599.60;561.97;;;20.50;5.30;;;;;;4995184;28;20473;-68
2022/07/16 05:17:23;;;;;;;621.63;578.83;;;21.80;3.60;;;;;;4995062;28;20185;-68
2022/07/16 05:19:48;;;;;;;865.30;790.10;;;23.00;3.20;;;;;;4994960;28;20578;-69
2022/07/16 05:22:14;;;;;;;695.07;644.30;;;24.10;1.00;;;;;;4995360;28;20231;-67
2022/07/16 05:24:39;;;;;;;664.63;618.83;;;25.00;18.30;;;;;;4995298;28;20183;-68
2022/07/16 05:27:05;;;;;;;860.17;785.60;;;25.80;1.00;;;;;;4995149;28;20234;-68
2022/07/16 05:29:30;;;;;;;823.60;761.80;;;26.60;1.00;;;;;;4993476;28;20227;-68
2022/07/16 05:31:56;;;;;;;1108.60;981.13;;;27.30;1.00;;;;;;4995124;28;20625;-67
2022/07/16 05:34:22;;;;;;;834.10;769.17;;;28.00;1.00;;;;;;4994030;28;20596;-68
2022/07/16 05:36:47;;;;;;;1045.17;933.30;;;28.50;1.00;;;;;;4994839;28;20184;-68
2022/07/16 05:39:13;;;;;;;964.90;883.27;;;28.70;1.00;;;;;;4994780;28;20224;-69
2022/07/16 05:41:38;;;;;;;959.97;876.23;;;29.20;1.00;;;;;;4994705;28;20598;-68
2022/07/16 05:44:04;;;;;;;886.13;816.83;;;29.90;1.00;;;;;;4995096;28;20224;-69
2022/07/16 05:46:29;;;;;;;904.67;827.70;;;30.50;1.00;;;;;;4995042;28;20191;-68
2022/07/16 05:48:55;;;;;;;929.50;853.70;;;30.70;1.00;;;;;;4994475;28;20258;-68
2022/07/16 05:51:20;;;;;;;1043.97;942.90;;;30.70;1.00;;;;;;4995049;28;20196;-68
2022/07/16 05:53:46;;;;;;;955.90;873.93;;;31.30;1.00;;;;;;4994956;28;20303;-68
2022/07/16 05:56:11;;;;;;;989.77;902.40;;;31.40;1.00;;;;;;4994085;28;20212;-69
2022/07/16 05:58:37;;;;;;;899.53;826.50;;;30.00;1.00;;;;;;4994492;28;20199;-67
2022/07/16 06:01:03;;;;;;;960.33;874.10;;;30.20;1.00;;;;;;4994926;28;20193;-67
2022/07/16 06:03:28;;;;;;;1116.40;996.73;;;30.70;1.00;;;;;;4994612;28;20251;-67
2022/07/16 06:05:54;;;;;;;1007.60;913.57;;;;;;;;;;4994865;28;20276;-68
2022/07/16 06:08:20;;;;;;;1058.50;950.73;;;32.20;1.00;;;;;;4994077;28;20180;-68
2022/07/16 06:10:45;;;;;;;948.27;862.67;;;32.80;1.00;;;;;;4993034;28;20454;-67
2022/07/16 06:13:11;;;;;;;961.33;870.13;;;33.30;1.00;;;;;;4994467;28;20189;-67
2022/07/16 06:15:37;;;;;;;874.87;800.73;;;33.80;1.00;;;;;;4994621;28;20271;-68
2022/07/16 06:18:03;;;;;;;924.50;841.47;;;32.70;1.00;;;;;;4994240;28;20607;-68
2022/07/16 06:20:29;;;;;;;972.20;881.23;;;32.70;1.00;;;;;;4994391;28;20488;-68
2022/07/16 06:22:56;;;;;;;901.03;823.30;;;33.30;1.00;;;;;;4994476;28;20503;-68
2022/07/16 06:25:22;;;;;;;1003.27;903.20;;;33.70;1.00;;;;;;4994388;28;20180;-68
2022/07/16 06:27:48;;;;;;;977.67;888.73;;;34.40;1.00;;;;;;4993815;28;20424;-67
2022/07/16 06:30:14;;;;;;;993.73;900.50;;;34.70;1.00;;;;;;4985941;28;20572;-67
2022/07/16 06:32:40;;;;;;;985.57;894.23;;;35.00;1.00;;;;;;4991973;28;20216;-66
2022/07/16 06:35:09;;;;;;;1059.33;948.23;;;35.30;1.00;;;;;;4994387;28;20423;-68
2022/07/16 06:37:35;;;;;;;1033.57;927.37;;;35.10;1.00;;;;;;4994297;28;20420;-67
2022/07/16 06:40:01;;;;;;;1002.60;909.47;;;35.40;1.00;;;;;;4992219;28;20451;-67
2022/07/16 06:42:26;;;;;;;1044.10;934.37;;;35.40;1.00;;;;;;4993653;28;20556;-68
2022/07/16 06:44:52;;;;;;;964.20;873.43;;;35.10;1.00;;;;;;4993911;28;20169;-67
2022/07/16 06:47:17;;;;;;;949.07;856.50;;;34.60;1.00;;;;;;4993559;28;20188;-67
2022/07/16 06:49:43;;;;;;;880.37;804.40;;;34.20;1.00;;;;;;4993641;28;20180;-67
2022/07/16 06:52:09;;;;;;;876.63;799.60;;;32.90;1.00;;;;;;4994110;28;20180;-69
2022/07/16 06:54:34;;;;;;;1087.87;964.87;;;32.00;1.00;;;;;;4984426;28;20556;-70
2022/07/16 06:57:00;;;;;;;983.00;886.57;;;31.70;1.00;;;;;;5013405;28;20176;-69
2022/07/16 06:59:25;;;;;;;900.93;826.60;;;31.00;1.00;;;;;;5013344;28;20520;-70
2022/07/16 07:01:51;;;;;;;829.07;764.10;;;30.20;1.00;;;;;;5013310;28;20208;-69
2022/07/16 07:04:17;;;;;;;940.40;859.10;;;27.00;1.00;;;;;;5012005;28;20215;-69
2022/07/16 07:06:42;;;;;;;890.17;822.07;;;26.00;1.00;;;;;;4996413;28;20169;-67
2022/07/16 07:09:08;;;;;;;1021.80;928.50;;;26.70;1.00;;;;;;4991920;28;20176;-69
2022/07/16 07:11:34;;;;;;;1305.70;999.90;;;27.60;1.00;;;;;;4992874;28;20205;-71
2022/07/16 07:13:59;;;;;;;1094.93;978.77;;;28.10;1.00;;;;;;4993447;28;20187;-70
2022/07/16 07:16:25;;;;;;;1022.00;922.23;;;28.20;1.00;;;;;;4997430;28;20420;-70
2022/07/16 07:18:51;;;;;;;1031.07;928.77;;;;;;;;;;5012175;28;20180;-68
2022/07/16 07:21:16;;;;;;;1020.07;926.33;;;30.10;1.00;;;;;;5012867;28;20199;-69
2022/07/16 07:23:42;;;;;;;963.73;879.83;;;31.30;1.00;;;;;;5008978;28;20454;-70
2022/07/16 07:26:08;;;;;;;1009.93;912.63;;;32.40;1.00;;;;;;4972940;28;20771;-70
2022/07/16 07:28:36;;;;;;;908.03;832.03;;;33.10;1.00;;;;;;4992238;28;20564;-68
2022/07/16 07:31:02;;;;;;;1297.90;999.90;;;33.90;1.00;;;;;;4982597;28;20217;-71
2022/07/16 07:33:28;;;;;;;1024.03;919.20;;;34.20;1.00;;;;;;4974153;28;20428;-70
2022/07/16 07:35:57;;;;;;;924.83;839.80;;;33.50;1.00;;;;;;4956109;28;20268;-69
2022/07/16 07:38:22;;;;;;;1033.97;920.97;;;32.80;1.00;;;;;;4978438;28;20525;-68
2022/07/16 07:40:49;;;;;;;881.20;807.37;;;32.60;1.00;;;;;;4989856;28;21214;-68
2022/07/16 07:43:18;;;;;;;884.73;813.03;;;30.10;1.00;;;;;;4983913;28;20311;-68
2022/07/16 07:45:43;;;;;;;1014.37;908.50;;;31.10;1.00;;;;;;4974835;28;20839;-69
2022/07/16 07:48:13;;;;;;;895.07;823.30;;;32.00;1.00;;;;;;4959409;28;20424;-68
2022/07/16 07:50:39;;;;;;;918.30;835.23;;;32.70;1.00;;;;;;4992515;28;20268;-67
2022/07/16 07:53:05;;;;;;;948.47;861.73;;;33.30;1.00;;;;;;4992495;28;20836;-69
2022/07/16 07:55:34;;;;;;;888.37;812.57;;;33.90;1.00;;;;;;4993235;28;20458;-68
2022/07/16 07:58:00;;;;;;;918.47;839.77;;;31.90;1.00;;;;;;4993624;28;20497;-68
2022/07/16 08:00:31;;;;;;;961.03;872.70;;;30.70;1.00;;;;;;4992091;28;20447;-68
2022/07/16 08:02:57;;;;;;;944.93;858.27;;;31.80;1.00;;;;;;4976163;28;20224;-69
2022/07/16 08:05:26;;;;;;;908.90;827.53;;;32.50;1.00;;;;;;4991675;28;20446;-72
2022/07/16 08:07:51;;;;;;;1033.53;923.40;;;32.70;1.00;;;;;;4992282;28;20184;-72
2022/07/16 08:10:17;;;;;;;912.53;829.73;;;33.10;1.00;;;;;;4992813;28;20439;-73
2022/07/16 08:12:43;;;;;;;892.00;808.53;;;33.40;1.00;;;;;;4992322;28;20184;-71
2022/07/16 08:15:09;;;;;;;1006.60;901.40;;;32.60;1.00;;;;;;4992550;28;20293;-73
2022/07/16 08:17:35;;;;;;;1145.20;961.70;;;32.80;1.00;;;;;;4990109;28;20188;-69
2022/07/16 08:20:02;;;;;;;1184.73;987.57;;;31.70;1.00;;;;;;4975728;28;20467;-70
2022/07/16 08:22:27;;;;;;;1012.00;908.03;;;31.50;1.00;;;;;;4974976;28;20215;-71
2022/07/16 08:27:37;;;;;;;885.47;814.63;;;31.90;5.40;;;;;;4991686;28;20199;-71
2022/07/16 08:30:03;;;;;;;1061.67;942.17;;;31.20;1.00;;;;;;4991410;28;20922;-71
2022/07/16 08:32:29;;;;;;;877.80;806.30;;;29.00;1.00;;;;;;4991788;28;20188;-71
2022/07/16 08:34:55;;;;;;;909.00;833.27;;;28.20;1.00;;;;;;4991869;28;20212;-71
2022/07/16 08:37:37;;;;;;;1034.47;930.17;;;28.20;1.00;;;;;;4991725;28;20518;-71
2022/07/16 08:40:05;;;;;;;887.57;814.23;;;29.20;1.00;;;;;;4986747;28;20211;-71
2022/07/16 08:42:32;;;;;;;1166.00;971.90;;;29.20;1.00;;;;;;4988026;28;21087;-70
2022/07/16 08:44:59;;;;;;;948.07;859.90;;;28.40;1.00;;;;;;4989799;28;20420;-71
2022/07/16 08:47:26;;;;;;;851.33;784.77;;;28.70;1.00;;;;;;4991482;28;20523;-72
2022/07/16 08:49:52;;;;;;;962.27;863.50;;;28.10;1.00;;;;;;4991431;28;20411;-69
2022/07/16 08:52:19;;;;;;;1045.43;932.80;;;28.50;1.00;;;;;;4991872;28;20798;-72
2022/07/16 08:54:47;;;;;;;1277.03;999.90;;;27.60;1.00;;;;;;4991319;28;20478;-69
2022/07/16 08:57:14;;;;;;;916.20;831.00;;;26.90;1.00;;;;;;4990678;28;20411;-69
2022/07/16 08:59:40;;;;;;;964.70;868.13;;;26.80;1.00;;;;;;4990396;28;20424;-70
2022/07/16 09:02:05;;;;;;;982.73;885.77;;;26.90;1.00;;;;;;4990443;28;20494;-69
2022/07/16 09:04:31;;;;;;;822.93;757.10;;;26.60;1.00;;;;;;4989936;28;20809;-71
2022/07/16 09:06:56;;;;;;;811.60;752.57;;;26.10;1.00;;;;;;4990117;28;20563;-70
2022/07/16 09:09:22;;;;;;;955.17;862.53;;;25.30;1.00;;;;;;4989671;28;20185;-72
2022/07/16 09:11:47;;;;;;;722.83;675.80;;;25.10;1.00;;;;;;4990643;28;20611;-70
2022/07/16 09:14:15;;;;;;;787.33;726.40;;;24.70;1.00;;;;;;4990520;28;20251;-72
2022/07/16 09:16:46;;;;;;;799.20;740.50;;;24.60;1.00;;;;;;4992041;28;20193;-71
2022/07/16 09:19:21;;;;;;;992.33;891.63;;;24.30;1.00;;;;;;4991718;28;20622;-70
2022/07/16 09:22:19;;;;;;;753.73;699.77;;;24.20;1.00;;;;;;4991828;28;20458;-70
2022/07/16 09:24:47;;;;;;;829.93;762.80;;;23.10;1.00;;;;;;4960733;28;20440;-70
2022/07/16 09:27:17;;;;;;;768.57;715.07;;;22.90;1.00;;;;;;4988260;28;20932;-70
2022/07/16 09:29:47;;;;;;;976.10;888.80;;;;;;;;;;4991436;28;20426;-70
2022/07/16 09:32:29;;;;;;;707.60;656.40;;;22.90;1.00;;;;;;4992630;28;20411;-70
2022/07/16 09:35:04;;;;;;;844.80;777.77;;;22.90;1.00;;;;;;4995472;28;20973;-72
2022/07/16 09:37:47;;;;;;;944.60;858.07;;;22.90;1.00;;;;;;4995180;28;20419;-70
2022/07/16 09:40:14;;;;;;;803.20;737.93;;;22.40;1.00;;;;;;4995260;28;20586;-72
2022/07/16 09:42:41;;;;;;;880.37;805.33;;;22.10;1.00;;;;;;4995258;28;20465;-72
2022/07/16 09:45:07;;;;;;;883.63;811.50;;;22.20;1.00;;;;;;4995337;28;20435;-73
2022/07/16 09:47:33;;;;;;;988.83;898.63;;;22.50;1.00;;;;;;4995122;28;20419;-72
2022/07/16 09:50:00;;;;;;;760.47;709.93;;;22.60;1.00;;;;;;4994421;28;20420;-70
2022/07/16 09:52:31;;;;;;;848.60;785.53;;;22.90;1.00;;;;;;4995036;28;20696;-72
2022/07/16 09:54:58;;;;;;;693.63;646.50;;;23.00;1.00;;;;;;4994965;28;20435;-72
2022/07/16 09:57:26;;;;;;;770.03;714.07;;;22.70;1.00;;;;;;4995051;28;21004;-72
2022/07/16 09:59:53;;;;;;;788.00;726.93;;;22.90;1.00;;;;;;4994283;28;20439;-71
2022/07/16 10:02:19;;;;;;;809.67;747.37;;;22.90;1.00;;;;;;4994913;28;20550;-71
2022/07/16 10:04:44;;;;;;;995.87;907.90;;;22.80;1.00;;;;;;4995064;28;20508;-72
2022/07/16 10:07:10;;;;;;;768.53;717.27;;;22.90;1.00;;;;;;4994943;28;20235;-72
2022/07/16 10:09:36;;;;;;;756.77;705.30;;;23.00;1.00;;;;;;4994113;28;20553;-72
2022/07/16 10:12:11;;;;;;;765.87;710.53;;;23.10;1.00;;;;;;4994696;28;20197;-72
2022/07/16 10:14:41;;;;;;;757.70;704.97;;;23.20;1.00;;;;;;4994140;28;20427;-70
2022/07/16 10:17:21;;;;;;;924.90;846.87;;;23.00;1.00;;;;;;4994422;28;20411;-71
2022/07/16 10:19:58;;;;;;;750.13;699.23;;;23.10;1.00;;;;;;4994057;28;20423;-72
2022/07/16 10:22:30;;;;;;;770.17;712.77;;;23.10;1.00;;;;;;4994431;28;20458;-71
2022/07/16 10:24:56;;;;;;;868.90;797.97;;;23.00;1.00;;;;;;4993792;28;20420;-73
2022/07/16 10:27:25;;;;;;;774.60;712.80;;;23.00;1.00;;;;;;4992721;28;20428;-71
2022/07/16 10:30:10;;;;;;;843.40;772.37;;;22.90;1.00;;;;;;4973913;28;20854;-70
2022/07/16 10:33:06;;;;;;;762.63;710.87;;;22.90;1.00;;;;;;4975189;28;20923;-74
2022/07/16 10:35:49;;;;;;;1062.53;960.47;;;23.00;1.00;;;;;;4989342;28;20424;-72
2022/07/16 10:38:20;;;;;;;1103.00;986.90;;;23.10;1.00;;;;;;4993820;28;20420;-72
2022/07/16 10:40:46;;;;;;;677.13;634.20;;;23.10;1.00;;;;;;4994059;28;20443;-73
2022/07/16 10:43:17;;;;;;;759.87;706.97;;;23.20;1.00;;;;;;4993629;28;20460;-72
2022/07/16 10:46:06;;;;;;;827.63;763.40;;;23.30;1.00;;;;;;4992809;28;20412;-73
2022/07/16 10:48:38;;;;;;;707.57;657.37;;;23.30;1.00;;;;;;4974580;28;20440;-72
2022/07/16 10:51:14;;;;;;;758.83;704.50;;;23.30;1.00;;;;;;4973141;28;21005;-69
2022/07/16 10:53:58;;;;;;;728.97;674.43;;;23.30;1.00;;;;;;4988196;28;20877;-72
2022/07/16 10:56:33;;;;;;;828.83;765.07;;;23.20;1.00;;;;;;4993778;28;20513;-71
2022/07/16 10:58:59;;;;;;;750.63;695.30;;;23.30;1.00;;;;;;4992515;28;20461;-70
2022/07/16 11:01:25;;;;;;;869.67;794.93;;;23.50;1.00;;;;;;4993770;28;20431;-70
2022/07/16 11:03:51;;;;;;;746.23;691.27;;;23.60;1.00;;;;;;4993341;28;20575;-71
2022/07/16 11:06:20;;;;;;;774.57;714.53;;;23.70;1.00;;;;;;4994079;28;20419;-71
2022/07/16 11:08:46;;;;;;;845.30;774.30;;;23.40;1.00;;;;;;4992897;28;20423;-71
2022/07/16 11:11:12;;;;;;;816.57;751.40;;;23.20;1.00;;;;;;4993466;28;20471;-70
2022/07/16 11:13:38;;;;;;;836.53;773.20;;;23.20;1.00;;;;;;4993500;28;20448;-72
2022/07/16 11:16:08;;;;;;;831.03;765.40;;;23.40;1.00;;;;;;4993372;28;20546;-70
2022/07/16 11:18:38;;;;;;;771.00;715.73;;;23.50;1.00;;;;;;4993031;28;20483;-71
2022/07/16 11:21:07;;;;;;;776.70;719.00;;;23.60;1.00;;;;;;4992283;28;20494;-72
2022/07/16 11:23:56;;;;;;;1022.93;923.07;;;23.60;1.00;;;;;;4981098;28;20457;-71
2022/07/16 11:26:22;;;;;;;733.20;682.30;;;23.70;1.00;;;;;;4973974;28;20745;-72
2022/07/16 11:28:53;;;;;;;776.63;719.97;;;23.70;1.00;;;;;;4991040;28;20830;-72
2022/07/16 11:31:29;;;;;;;892.43;817.07;;;23.70;1.00;;;;;;4991637;28;20815;-71
2022/07/16 11:33:58;;;;;;;838.57;773.80;;;23.70;1.00;;;;;;4993138;28;20442;-71
2022/07/16 11:36:29;;;;;;;753.70;698.40;;;23.80;1.00;;;;;;4991858;28;20796;-72
2022/07/16 11:39:03;;;;;;;704.20;655.67;;;23.60;1.00;;;;;;4992580;28;20527;-70
2022/07/16 11:41:33;;;;;;;817.43;752.37;;;23.30;1.00;;;;;;4992973;28;20888;-72
2022/07/16 11:44:06;;;;;;;827.97;761.43;;;23.50;1.00;;;;;;4993144;28;20486;-72
2022/07/16 11:46:31;;;;;;;919.93;833.70;;;23.70;1.00;;;;;;4993057;28;20543;-72
2022/07/16 11:48:57;;;;;;;806.67;747.03;;;23.80;1.00;;;;;;4992744;28;20419;-71
2022/07/16 11:51:23;;;;;;;772.70;720.83;;;23.90;1.00;;;;;;4992396;28;20227;-71
2022/07/16 11:53:50;;;;;;;759.47;703.80;;;24.00;1.00;;;;;;4992488;28;20247;-70
2022/07/16 11:56:37;;;;;;;821.03;754.63;;;24.00;1.00;;;;;;4992846;28;20903;-71
2022/07/16 11:59:17;;;;;;;842.07;768.40;;;24.00;1.00;;;;;;4992321;28;20408;-71
2022/07/16 12:01:43;;;;;;;836.90;763.43;;;23.90;1.00;;;;;;4992637;28;20774;-71
2022/07/16 12:04:08;;;;;;;802.77;742.23;;;23.70;1.00;;;;;;4992655;28;20614;-71
2022/07/16 12:06:35;;;;;;;768.43;703.80;;;23.80;1.00;;;;;;4992623;28;20667;-72
2022/07/16 12:09:01;;;;;;;788.23;729.10;;;23.80;1.00;;;;;;4992435;28;20264;-71
2022/07/16 12:11:35;;;;;;;748.80;692.70;;;23.80;1.00;;;;;;4992844;28;20474;-71
2022/07/16 12:14:02;;;;;;;961.10;865.57;;;23.80;1.00;;;;;;4993207;28;20204;-72
2022/07/16 12:16:28;;;;;;;805.37;737.63;;;23.90;1.00;;;;;;4984450;28;20431;-69
2022/07/16 12:19:04;;;;;;;850.47;775.00;;;23.90;1.00;;;;;;4989358;28;20879;-69
2022/07/16 12:21:37;;;;;;;833.80;769.27;;;23.90;1.00;;;;;;4993730;28;20989;-71